Terminal Aerodrome Forecast
Issued by NWS

Home | Current Version | Previous Version | Text Only | Print | Product List | Glossary On
Versions: 1 2 3 4 5 6 7 8 9 10 11 12 13 14 15
000
FTUS43 KMPX 242343
TAFRWF
TAF
KRWF 242343Z 2500/2524 13012KT P6SM -RA OVC015
     FM250500 09008KT 4SM BR OVC009
     FM251500 10010KT 5SM BR OVC015
     FM252000 08010G16KT P6SM SCT030 OVC050=

USA.gov is the U.S. government's official web portal to all federal, state and local government web resources and services.